Time;durP1;ratioP1;P1;durP2;ratioP2;P2;SDS_P1;SDS_P2;PMS_P1;PMS_P2;Temp;Humidity;BMP_temperature;BMP_pressure;BME280_temperature;BME280_humidity;BME280_pressure;Samples;Min_cycle;Max_cycle;Signal;HPM_P1;HPM_P2
2020/12/31 00:01:25;;;;;;;67.33;37.23;;;3.00;78.30;;;;;;5007130;28;85654;-78
2020/12/31 00:03:52;;;;;;;67.70;37.40;;;3.00;78.10;;;;;;5010157;28;87668;-77
2020/12/31 00:06:18;;;;;;;63.67;36.30;;;3.00;78.00;;;;;;5028314;28;86899;-76
2020/12/31 00:08:44;;;;;;;65.83;38.00;;;3.10;77.70;;;;;;5006979;28;88148;-78
2020/12/31 00:11:10;;;;;;;74.50;39.40;;;3.10;77.60;;;;;;5023301;28;87447;-78
2020/12/31 00:13:37;;;;;;;67.03;37.17;;;3.10;77.50;;;;;;5022639;28;86636;-78
2020/12/31 00:16:03;;;;;;;65.63;37.37;;;3.10;77.40;;;;;;5023645;28;83424;-78
2020/12/31 00:18:29;;;;;;;72.63;40.03;;;3.10;77.30;;;;;;5022949;28;87372;-78
2020/12/31 00:20:55;;;;;;;68.23;38.37;;;3.00;77.30;;;;;;5006719;28;86678;-78
2020/12/31 00:23:21;;;;;;;68.63;37.43;;;3.00;77.40;;;;;;5024308;28;84466;-78
2020/12/31 00:25:56;;;;;;;70.30;39.13;;;3.00;77.10;;;;;;5025470;28;83419;-77
2020/12/31 00:28:22;;;;;;;68.57;38.37;;;3.00;77.20;;;;;;5025395;28;84602;-77
2020/12/31 00:30:49;;;;;;;64.30;37.17;;;3.00;77.30;;;;;;5029572;28;87125;-78
2020/12/31 00:33:16;;;;;;;71.20;37.30;;;3.00;77.40;;;;;;5023096;28;83743;-78
2020/12/31 00:35:44;;;;;;;75.47;39.47;;;2.90;78.00;;;;;;5024029;28;84115;-78
2020/12/31 00:38:09;;;;;;;57.13;31.73;;;2.90;78.30;;;;;;5022870;28;88218;-78
2020/12/31 00:40:35;;;;;;;64.57;36.13;;;2.90;78.80;;;;;;5005201;28;87249;-78
2020/12/31 00:43:02;;;;;;;63.70;34.90;;;2.90;78.30;;;;;;5023000;28;84043;-78
2020/12/31 00:45:28;;;;;;;59.10;29.90;;;2.80;78.30;;;;;;5022470;28;83106;-78
2020/12/31 00:47:54;;;;;;;67.73;36.57;;;2.80;78.60;;;;;;5022544;28;88340;-78
2020/12/31 00:50:22;;;;;;;62.33;35.00;;;2.80;78.50;;;;;;5022266;28;86793;-77
2020/12/31 00:52:49;;;;;;;71.67;38.13;;;2.80;78.50;;;;;;5005723;28;85798;-78
2020/12/31 00:55:15;;;;;;;69.63;38.13;;;2.80;78.30;;;;;;5022843;28;83491;-78
2020/12/31 00:57:41;;;;;;;69.90;39.27;;;2.80;78.60;;;;;;5004361;28;87605;-78
2020/12/31 01:00:09;;;;;;;72.37;39.13;;;2.80;78.70;;;;;;5022553;28;86205;-78
2020/12/31 01:02:53;;;;;;;67.93;35.43;;;2.70;78.70;;;;;;5022409;28;83137;-78
2020/12/31 01:05:19;;;;;;;69.23;36.53;;;2.70;78.80;;;;;;5022462;28;83807;-76
2020/12/31 01:07:45;;;;;;;74.40;36.90;;;2.70;79.20;;;;;;5022178;28;85021;-78
2020/12/31 01:10:11;;;;;;;71.30;36.80;;;2.70;79.60;;;;;;5022491;28;84260;-78
2020/12/31 01:12:37;;;;;;;78.13;39.57;;;2.70;79.00;;;;;;5021783;28;83391;-78
2020/12/31 01:15:07;;;;;;;75.40;39.03;;;2.60;79.50;;;;;;5022593;28;83444;-78
2020/12/31 01:17:33;;;;;;;79.80;39.83;;;2.60;79.40;;;;;;5022493;28;83295;-78
2020/12/31 01:19:58;;;;;;;78.73;39.37;;;2.60;79.80;;;;;;5005421;28;87403;-78
2020/12/31 01:22:26;;;;;;;82.97;39.77;;;2.70;79.90;;;;;;5004840;28;86764;-77
2020/12/31 01:24:53;;;;;;;73.10;37.47;;;2.60;80.00;;;;;;5005360;28;86891;-78
2020/12/31 01:27:18;;;;;;;75.50;38.87;;;2.60;79.80;;;;;;5005333;28;87981;-78
2020/12/31 01:29:44;;;;;;;76.17;39.67;;;2.60;79.20;;;;;;5021190;28;83681;-78
2020/12/31 01:32:10;;;;;;;69.63;37.43;;;2.70;79.30;;;;;;5021806;28;86950;-78
2020/12/31 01:34:36;;;;;;;73.23;38.00;;;2.70;79.20;;;;;;5022626;28;83481;-78
2020/12/31 01:37:03;;;;;;;75.77;39.20;;;2.70;78.60;;;;;;5023225;28;83180;-78
2020/12/31 01:39:29;;;;;;;75.40;37.97;;;2.70;78.30;;;;;;5021374;28;84232;-78
2020/12/31 01:42:01;;;;;;;78.73;38.73;;;2.70;78.30;;;;;;5023359;28;84533;-78
2020/12/31 01:44:26;;;;;;;;;;;2.60;78.60;;;;;;5022220;28;83173;-78
2020/12/31 01:46:57;;;;;;;79.97;38.87;;;2.60;78.90;;;;;;5006594;28;86943;-78
2020/12/31 01:49:24;;;;;;;70.93;38.20;;;2.60;78.60;;;;;;5021791;28;84117;-76
2020/12/31 01:51:50;;;;;;;75.63;40.10;;;2.60;78.50;;;;;;5003683;28;87001;-78
2020/12/31 01:54:20;;;;;;;70.63;38.50;;;2.50;78.50;;;;;;5005217;28;86525;-78
2020/12/31 01:56:48;;;;;;;68.20;36.83;;;2.50;78.90;;;;;;5020936;28;84319;-78
2020/12/31 01:59:16;;;;;;;71.97;37.53;;;2.50;78.80;;;;;;5004814;28;86997;-78
2020/12/31 02:01:42;;;;;;;75.73;37.83;;;2.50;79.00;;;;;;5022115;28;83993;-78
2020/12/31 02:04:08;;;;;;;77.43;40.17;;;2.50;78.50;;;;;;5021490;28;87227;-78
2020/12/31 02:06:35;;;;;;;73.97;41.23;;;2.50;78.70;;;;;;5020776;28;84588;-78
2020/12/31 02:09:01;;;;;;;76.60;40.83;;;2.50;78.60;;;;;;5021537;28;84064;-78
2020/12/31 02:11:27;;;;;;;72.63;35.43;;;2.50;78.60;;;;;;5004154;28;87623;-76
2020/12/31 02:13:53;;;;;;;70.27;35.70;;;2.30;79.30;;;;;;5022679;28;83873;-78
2020/12/31 02:16:22;;;;;;;68.70;34.57;;;2.30;79.90;;;;;;5021763;28;84585;-78
2020/12/31 02:19:01;;;;;;;72.10;36.77;;;2.30;80.10;;;;;;5020720;28;87882;-78
2020/12/31 02:21:29;;;;;;;66.90;34.23;;;2.30;80.50;;;;;;5004600;28;87307;-76
2020/12/31 02:23:56;;;;;;;67.23;34.87;;;2.30;80.40;;;;;;5021641;28;86371;-78
2020/12/31 02:26:23;;;;;;;76.83;37.90;;;2.30;80.30;;;;;;5004705;28;88119;-79
2020/12/31 02:28:50;;;;;;;69.87;36.23;;;2.30;79.70;;;;;;5003478;28;87407;-78
2020/12/31 02:31:16;;;;;;;70.23;36.20;;;2.30;79.70;;;;;;5021285;28;86952;-78
2020/12/31 02:33:49;;;;;;;65.13;32.97;;;2.20;79.80;;;;;;5003871;28;86642;-78
2020/12/31 02:36:16;;;;;;;72.33;37.33;;;2.30;80.20;;;;;;5021331;28;88181;-78
2020/12/31 02:38:43;;;;;;;73.60;39.33;;;2.30;79.50;;;;;;5021898;28;84136;-78
2020/12/31 02:41:09;;;;;;;74.60;36.20;;;2.30;79.10;;;;;;5021614;28;83507;-78
2020/12/31 02:43:36;;;;;;;69.70;37.87;;;2.30;78.90;;;;;;5021343;28;83528;-78
2020/12/31 02:46:04;;;;;;;67.73;35.73;;;2.30;78.90;;;;;;5024541;28;84750;-78
2020/12/31 02:48:30;;;;;;;72.70;38.70;;;2.20;78.70;;;;;;5026936;28;84044;-76
2020/12/31 02:50:56;;;;;;;78.10;38.13;;;2.20;79.10;;;;;;5004290;28;85090;-78
2020/12/31 02:53:22;;;;;;;70.87;37.37;;;2.20;79.40;;;;;;5004281;28;86928;-78
2020/12/31 02:55:47;;;;;;;69.50;33.47;;;2.20;79.90;;;;;;5003596;28;87321;-78
2020/12/31 02:58:13;;;;;;;72.40;34.43;;;2.30;80.50;;;;;;5004293;28;87285;-78
2020/12/31 03:00:39;;;;;;;67.77;35.93;;;2.30;80.40;;;;;;5020484;28;83356;-77
2020/12/31 03:03:05;;;;;;;69.80;36.70;;;2.30;80.00;;;;;;5023568;28;86888;-78
2020/12/31 03:05:31;;;;;;;66.17;36.10;;;2.20;79.30;;;;;;5007328;28;87233;-76
2020/12/31 03:07:57;;;;;;;71.03;37.30;;;2.20;79.20;;;;;;5024599;28;84062;-78
2020/12/31 03:10:23;;;;;;;64.77;33.77;;;2.10;79.50;;;;;;5007606;28;87164;-78
2020/12/31 03:12:48;;;;;;;65.87;35.33;;;2.10;79.90;;;;;;5006817;28;86614;-78
2020/12/31 03:15:17;;;;;;;65.63;34.47;;;2.00;80.40;;;;;;5007409;28;86767;-78
2020/12/31 03:17:43;;;;;;;72.17;36.33;;;2.00;81.00;;;;;;5006848;28;86899;-78
2020/12/31 03:20:09;;;;;;;68.27;35.13;;;2.00;80.90;;;;;;5025969;28;83674;-78
2020/12/31 03:22:35;;;;;;;70.10;37.67;;;2.00;80.30;;;;;;5023558;28;86941;-77
2020/12/31 03:25:01;;;;;;;73.00;40.30;;;2.10;80.00;;;;;;5007646;28;87693;-78
2020/12/31 03:27:27;;;;;;;73.70;36.70;;;2.10;79.50;;;;;;5005349;28;91209;-78
2020/12/31 03:29:52;;;;;;;65.70;34.40;;;2.10;79.00;;;;;;4988578;28;90982;-78
2020/12/31 03:32:19;;;;;;;65.13;34.77;;;2.10;78.70;;;;;;5007740;28;86954;-78
2020/12/31 03:34:45;;;;;;;68.87;35.53;;;2.10;79.20;;;;;;5008484;28;87858;-79
2020/12/31 03:37:12;;;;;;;66.60;34.13;;;2.10;79.50;;;;;;5002529;28;88027;-78
2020/12/31 03:39:38;;;;;;;63.97;33.33;;;2.00;79.70;;;;;;5002825;28;88452;-77
2020/12/31 03:42:04;;;;;;;68.40;36.03;;;2.00;79.90;;;;;;5001734;28;87121;-78
2020/12/31 03:44:30;;;;;;;70.73;37.10;;;2.00;79.90;;;;;;4985048;28;87568;-78
2020/12/31 03:46:56;;;;;;;70.27;35.37;;;2.00;80.00;;;;;;5002416;28;88754;-78
2020/12/31 03:49:22;;;;;;;78.50;38.83;;;2.00;79.60;;;;;;5003044;28;87365;-78
2020/12/31 03:51:48;;;;;;;76.63;39.63;;;2.00;79.50;;;;;;4984235;28;87347;-78
2020/12/31 03:54:14;;;;;;;69.27;36.60;;;2.00;79.40;;;;;;4985257;28;87872;-78
2020/12/31 03:56:40;;;;;;;69.33;35.03;;;1.90;79.50;;;;;;4984122;28;90912;-78
2020/12/31 03:59:06;;;;;;;68.70;35.43;;;1.90;80.20;;;;;;4984757;28;91510;-78
2020/12/31 04:01:33;;;;;;;66.27;35.47;;;1.90;80.20;;;;;;5000921;28;88019;-78
2020/12/31 04:04:02;;;;;;;65.00;33.60;;;1.90;80.10;;;;;;5000636;28;88714;-78
2020/12/31 04:06:29;;;;;;;73.50;36.27;;;1.80;80.40;;;;;;5001324;28;91027;-78
2020/12/31 04:08:55;;;;;;;63.23;32.87;;;1.80;80.70;;;;;;5000422;28;90314;-78
2020/12/31 04:11:21;;;;;;;66.60;33.83;;;1.80;81.40;;;;;;5001398;28;86810;-78
2020/12/31 04:13:47;;;;;;;56.67;30.27;;;1.80;81.10;;;;;;4999549;28;87809;-78
2020/12/31 04:16:14;;;;;;;69.43;35.60;;;1.80;81.20;;;;;;5001182;28;88042;-78
2020/12/31 04:18:39;;;;;;;61.03;32.60;;;1.80;80.60;;;;;;4983688;28;91328;-78
2020/12/31 04:21:06;;;;;;;65.40;32.53;;;1.80;80.60;;;;;;5001412;28;87127;-78
2020/12/31 04:23:32;;;;;;;67.77;34.40;;;1.80;81.20;;;;;;5001247;28;86981;-78
2020/12/31 04:25:58;;;;;;;69.63;34.23;;;1.90;80.30;;;;;;4982945;28;92445;-78
2020/12/31 04:28:24;;;;;;;67.87;33.13;;;1.80;79.70;;;;;;4983748;28;92520;-77
2020/12/31 04:30:50;;;;;;;70.77;35.40;;;1.90;80.00;;;;;;5000178;28;86925;-78
2020/12/31 04:33:17;;;;;;;67.13;35.10;;;1.80;80.00;;;;;;5000834;28;87709;-78
2020/12/31 04:35:44;;;;;;;63.73;33.00;;;1.80;79.70;;;;;;4999972;28;91839;-78
2020/12/31 04:38:10;;;;;;;67.87;33.10;;;1.80;79.80;;;;;;4997651;28;87906;-78
2020/12/31 04:40:42;;;;;;;66.40;32.80;;;1.80;79.90;;;;;;4985051;28;87054;-78
2020/12/31 04:43:09;;;;;;;56.60;30.77;;;1.80;79.50;;;;;;4982941;28;86028;-78
2020/12/31 04:45:36;;;;;;;56.70;30.53;;;1.80;79.80;;;;;;4980604;28;90990;-78
2020/12/31 04:48:38;;;;;;;59.67;33.27;;;1.80;79.70;;;;;;4979969;28;90691;-78
2020/12/31 04:51:06;;;;;;;48.90;25.37;;;1.80;79.60;;;;;;4979856;28;87888;-78
2020/12/31 04:53:33;;;;;;;48.97;25.80;;;1.80;81.50;;;;;;4964371;28;87117;-78
2020/12/31 04:56:01;;;;;;;45.43;24.90;;;1.80;80.80;;;;;;4963445;28;91318;-78
2020/12/31 04:58:27;;;;;;;40.10;21.03;;;1.80;81.30;;;;;;4980485;28;91159;-78
2020/12/31 05:00:53;;;;;;;44.17;24.97;;;1.90;82.50;;;;;;4979928;28;87411;-78
2020/12/31 05:03:19;;;;;;;34.30;19.97;;;1.90;81.90;;;;;;4982813;28;87048;-78
2020/12/31 05:05:45;;;;;;;46.97;27.00;;;1.90;82.70;;;;;;4983433;28;87775;-77
2020/12/31 05:08:16;;;;;;;44.43;24.90;;;1.90;81.80;;;;;;4982581;28;91697;-78
2020/12/31 05:10:52;;;;;;;49.58;27.02;;;1.90;82.00;;;;;;4963591;28;86810;-76
2020/12/31 05:13:18;;;;;;;46.27;23.53;;;1.80;81.50;;;;;;4964097;28;87478;-78
2020/12/31 05:15:44;;;;;;;35.67;20.80;;;1.90;82.10;;;;;;4979135;28;89170;-77
2020/12/31 05:18:19;;;;;;;39.87;22.13;;;1.90;82.40;;;;;;4980245;28;88529;-78
2020/12/31 05:20:47;;;;;;;32.37;19.30;;;1.90;82.30;;;;;;4980785;28;86739;-78
2020/12/31 05:23:15;;;;;;;33.13;17.80;;;1.90;82.50;;;;;;4981517;28;87065;-77
2020/12/31 05:25:41;;;;;;;31.93;18.30;;;2.00;82.90;;;;;;4981105;28;88141;-76
2020/12/31 05:28:24;;;;;;;30.80;16.77;;;1.90;83.00;;;;;;4968621;28;91321;-78
2020/12/31 05:30:50;;;;;;;;;;;2.00;83.30;;;;;;5003105;28;87316;-78
2020/12/31 05:33:41;;;;;;;25.53;15.03;;;2.00;83.30;;;;;;5005954;28;86228;-78
2020/12/31 05:36:17;;;;;;;28.10;15.27;;;2.10;83.40;;;;;;5002632;28;91944;-78
2020/12/31 05:38:43;;;;;;;25.67;13.77;;;2.10;83.00;;;;;;5020524;28;87363;-76
2020/12/31 05:41:09;;;;;;;24.33;13.87;;;2.10;83.40;;;;;;4985794;28;87937;-78
2020/12/31 05:43:35;;;;;;;21.17;13.40;;;2.10;83.60;;;;;;5003286;28;86869;-78
2020/12/31 05:46:06;;;;;;;23.00;13.27;;;2.10;83.50;;;;;;4985550;28;91569;-78
2020/12/31 05:48:32;;;;;;;26.60;13.43;;;2.20;83.40;;;;;;5003071;28;87736;-78
2020/12/31 05:50:58;;;;;;;25.73;13.60;;;2.20;83.20;;;;;;5002229;28;87375;-78
2020/12/31 05:53:24;;;;;;;28.50;15.50;;;2.20;83.20;;;;;;4986513;28;87432;-78
2020/12/31 05:55:55;;;;;;;28.13;15.47;;;2.20;83.00;;;;;;5002151;28;88327;-78
2020/12/31 05:58:25;;;;;;;25.23;14.23;;;2.20;82.60;;;;;;4985863;28;90901;-78
2020/12/31 06:01:00;;;;;;;35.40;20.10;;;2.30;82.70;;;;;;5020401;28;86706;-78
2020/12/31 06:03:35;;;;;;;28.20;18.40;;;2.20;81.30;;;;;;4986271;28;87674;-78
2020/12/31 06:06:05;;;;;;;38.63;20.60;;;2.20;80.70;;;;;;5019541;28;88605;-78
2020/12/31 06:08:35;;;;;;;30.07;17.17;;;2.20;80.10;;;;;;5020629;28;88140;-78
2020/12/31 06:11:02;;;;;;;27.77;16.53;;;2.20;80.70;;;;;;5001807;28;86937;-78
2020/12/31 06:13:38;;;;;;;27.13;16.37;;;2.20;82.50;;;;;;5020881;28;87171;-78
2020/12/31 06:16:05;;;;;;;25.90;15.93;;;2.20;82.40;;;;;;5019931;28;88267;-78
2020/12/31 06:18:36;;;;;;;31.47;17.37;;;2.30;82.20;;;;;;5002469;28;91513;-78
2020/12/31 06:21:02;;;;;;;26.00;15.50;;;2.30;82.30;;;;;;5001740;28;87356;-78
2020/12/31 06:23:38;;;;;;;30.27;17.53;;;2.30;82.20;;;;;;5003061;28;88185;-77
2020/12/31 06:26:30;;;;;;;30.80;18.40;;;2.30;81.40;;;;;;4985070;28;91614;-78
2020/12/31 06:28:56;;;;;;;33.10;18.38;;;2.40;80.90;;;;;;5001218;28;91372;-78
2020/12/31 06:31:22;;;;;;;25.97;16.67;;;2.40;80.20;;;;;;5020176;28;88219;-77
2020/12/31 06:33:50;;;;;;;30.33;17.30;;;2.40;80.60;;;;;;5020056;28;87313;-76
2020/12/31 06:36:16;;;;;;;27.90;16.03;;;2.40;80.20;;;;;;4985377;28;90897;-78
2020/12/31 06:38:47;;;;;;;32.43;18.37;;;2.40;80.60;;;;;;5002565;28;87577;-78
2020/12/31 06:41:31;;;;;;;28.75;17.40;;;2.50;79.60;;;;;;5020432;28;86701;-78
2020/12/31 06:44:16;;;;;;;32.30;17.20;;;2.60;80.00;;;;;;5020313;28;86967;-78
2020/12/31 06:46:45;;;;;;;25.57;15.97;;;2.60;80.30;;;;;;5019909;28;88223;-78
2020/12/31 06:49:12;;;;;;;28.17;16.97;;;2.60;80.10;;;;;;5020239;28;88787;-78
2020/12/31 06:51:38;;;;;;;31.10;17.90;;;2.60;79.40;;;;;;5002757;28;87073;-78
2020/12/31 06:54:04;;;;;;;32.27;19.43;;;2.70;78.70;;;;;;4985978;28;87058;-78
2020/12/31 06:56:51;;;;;;;36.17;20.47;;;2.60;78.20;;;;;;5020599;28;89076;-78
2020/12/31 06:59:35;;;;;;;34.27;20.20;;;2.60;78.10;;;;;;4988472;28;91920;-78
2020/12/31 07:02:03;;;;;;;34.03;20.17;;;2.60;78.60;;;;;;4992074;28;87489;-78
2020/12/31 07:04:33;;;;;;;36.20;20.47;;;2.50;78.70;;;;;;5020115;28;87243;-78
2020/12/31 07:07:01;;;;;;;34.67;20.03;;;2.60;78.70;;;;;;5019514;28;87930;-78
2020/12/31 07:09:30;;;;;;;42.03;20.83;;;2.60;78.80;;;;;;5010403;28;88462;-78
2020/12/31 07:12:01;;;;;;;36.77;20.37;;;2.60;79.10;;;;;;5039039;28;86763;-78
2020/12/31 07:14:28;;;;;;;33.53;19.60;;;2.70;80.20;;;;;;5022456;28;86295;-78
2020/12/31 07:16:55;;;;;;;36.83;19.83;;;2.70;80.10;;;;;;5020937;28;87685;-78
2020/12/31 07:19:32;;;;;;;34.47;19.47;;;2.70;80.40;;;;;;5021755;28;88502;-78
2020/12/31 07:21:58;;;;;;;30.73;18.30;;;2.70;80.40;;;;;;5002573;28;88014;-77
2020/12/31 07:24:29;;;;;;;34.10;18.97;;;2.70;80.50;;;;;;5024674;28;87028;-78
2020/12/31 07:27:00;;;;;;;32.23;18.80;;;2.70;80.60;;;;;;5025721;28;88259;-77
2020/12/31 07:29:31;;;;;;;29.03;18.90;;;2.70;80.30;;;;;;5021028;28;88066;-78
2020/12/31 07:31:59;;;;;;;29.88;18.20;;;2.70;80.40;;;;;;5020388;28;87425;-78
2020/12/31 07:34:26;;;;;;;31.47;19.43;;;2.70;80.10;;;;;;5021285;28;88460;-78
2020/12/31 07:37:06;;;;;;;37.27;20.53;;;2.70;79.70;;;;;;5038230;28;88450;-76
2020/12/31 07:39:33;;;;;;;44.70;20.83;;;2.60;79.50;;;;;;5022607;28;88445;-78
2020/12/31 07:42:15;;;;;;;39.10;22.17;;;2.70;79.50;;;;;;5021120;28;86844;-78
2020/12/31 07:44:53;;;;;;;39.97;22.50;;;2.60;79.50;;;;;;5021341;28;87718;-78
2020/12/31 07:47:20;;;;;;;33.37;20.80;;;2.60;79.20;;;;;;5021140;28;89141;-78
2020/12/31 07:49:49;;;;;;;42.87;22.83;;;2.60;79.00;;;;;;5040847;27;88359;-78
2020/12/31 07:52:15;;;;;;;40.97;23.30;;;2.70;79.00;;;;;;5023520;28;87026;-79
2020/12/31 07:54:41;;;;;;;43.77;24.30;;;2.80;78.60;;;;;;5020210;28;87568;-78
2020/12/31 07:57:11;;;;;;;39.10;23.33;;;2.90;78.20;;;;;;5004782;28;91425;-78
2020/12/31 07:59:45;;;;;;;41.63;23.33;;;3.10;77.50;;;;;;5005320;28;90721;-78
2020/12/31 08:02:14;;;;;;;36.97;23.30;;;3.20;76.60;;;;;;5005221;28;87048;-78
2020/12/31 08:04:40;;;;;;;40.53;22.53;;;3.40;75.50;;;;;;5005506;28;87224;-78
2020/12/31 08:07:17;;;;;;;40.13;22.63;;;3.70;74.60;;;;;;5021564;28;87452;-78
2020/12/31 08:09:46;;;;;;;37.37;22.77;;;4.00;73.10;;;;;;5022240;28;88114;-78
2020/12/31 08:12:12;;;;;;;36.87;24.10;;;4.30;72.20;;;;;;5020205;28;88251;-78
2020/12/31 08:14:45;;;;;;;38.63;21.93;;;4.50;70.80;;;;;;5005112;28;87313;-78
2020/12/31 08:17:12;;;;;;;38.07;23.40;;;4.70;70.10;;;;;;5003384;28;91353;-78
2020/12/31 08:19:39;;;;;;;39.90;21.77;;;4.80;69.50;;;;;;5021551;28;91522;-78
2020/12/31 08:22:37;;;;;;;34.13;22.17;;;4.90;69.20;;;;;;5039891;28;87196;-78
2020/12/31 08:25:10;;;;;;;40.83;23.33;;;5.10;69.30;;;;;;5033659;28;87128;-78
2020/12/31 08:27:39;;;;;;;36.37;21.90;;;5.20;68.30;;;;;;5021961;28;91263;-78
2020/12/31 08:30:10;;;;;;;36.93;22.00;;;5.30;67.70;;;;;;5021365;28;88201;-77
2020/12/31 08:32:48;;;;;;;36.80;23.58;;;5.40;67.40;;;;;;5048973;27;87408;-78
2020/12/31 08:35:26;;;;;;;41.90;25.53;;;5.60;67.20;;;;;;5028578;28;87173;-78
2020/12/31 08:38:12;;;;;;;41.37;24.30;;;5.70;66.90;;;;;;5010660;27;92279;-79
2020/12/31 08:40:41;;;;;;;44.87;25.77;;;5.90;66.40;;;;;;5050248;27;88660;-79
2020/12/31 08:43:15;;;;;;;44.03;26.67;;;6.10;65.80;;;;;;5048134;27;86979;-78
2020/12/31 08:45:41;;;;;;;47.40;26.30;;;6.20;65.40;;;;;;5035625;27;88118;-78
2020/12/31 08:48:14;;;;;;;51.53;27.37;;;6.40;65.60;;;;;;5022466;27;89814;-78
2020/12/31 08:50:41;;;;;;;43.37;23.87;;;6.60;64.90;;;;;;5014386;27;90911;-78
2020/12/31 08:53:07;;;;;;;48.17;26.00;;;6.80;64.40;;;;;;5050744;27;87153;-78
2020/12/31 08:55:37;;;;;;;48.80;26.97;;;7.00;63.70;;;;;;5033490;27;87608;-78
2020/12/31 08:58:16;;;;;;;48.17;28.20;;;7.10;63.20;;;;;;5036409;27;88058;-79
2020/12/31 09:00:43;;;;;;;42.30;24.73;;;7.30;63.10;;;;;;5010466;28;89728;-78
2020/12/31 09:03:10;;;;;;;41.53;23.67;;;7.50;61.50;;;;;;5032324;27;88128;-78
2020/12/31 09:05:36;;;;;;;36.30;22.73;;;7.60;61.50;;;;;;5034147;27;87589;-79
2020/12/31 09:08:07;;;;;;;43.40;24.60;;;7.80;61.00;;;;;;5015997;27;91693;-79
2020/12/31 09:10:37;;;;;;;43.80;26.13;;;7.90;60.60;;;;;;5033222;27;90268;-78
2020/12/31 09:13:04;;;;;;;42.00;24.40;;;8.10;60.20;;;;;;5006550;28;86823;-77
2020/12/31 09:15:30;;;;;;;36.92;23.30;;;8.20;60.10;;;;;;4988696;28;87061;-77
2020/12/31 09:17:57;;;;;;;34.50;22.52;;;8.30;60.00;;;;;;5005218;28;91499;-76
2020/12/31 09:20:26;;;;;;;32.40;20.80;;;8.50;59.40;;;;;;5023875;28;91230;-77
2020/12/31 09:23:06;;;;;;;32.03;19.93;;;8.60;58.90;;;;;;5045882;28;87265;-78
2020/12/31 09:25:32;;;;;;;27.23;19.05;;;8.80;58.50;;;;;;5027831;28;87943;-78
2020/12/31 09:27:57;;;;;;;29.55;18.98;;;9.00;58.20;;;;;;5012717;28;93113;-77
2020/12/31 09:30:29;;;;;;;27.60;17.70;;;9.10;57.80;;;;;;5019218;27;92221;-78
2020/12/31 09:32:55;;;;;;;;;;;9.20;57.50;;;;;;5012763;28;87409;-75
2020/12/31 09:35:21;;;;;;;24.35;16.90;;;9.30;57.30;;;;;;5033768;27;87664;-76
2020/12/31 09:37:48;;;;;;;27.27;17.17;;;9.40;57.20;;;;;;5017578;27;91828;-78
2020/12/31 09:40:15;;;;;;;24.40;17.02;;;9.40;57.00;;;;;;5019600;28;91994;-77
2020/12/31 09:42:41;;;;;;;23.27;16.45;;;9.50;57.00;;;;;;5037554;27;86994;-78
2020/12/31 09:45:07;;;;;;;25.55;14.07;;;9.60;56.90;;;;;;5035290;28;88571;-77
2020/12/31 09:47:33;;;;;;;16.20;11.88;;;9.70;56.10;;;;;;5010948;28;90001;-76
2020/12/31 09:49:59;;;;;;;19.23;13.10;;;9.70;56.20;;;;;;5039786;27;87901;-76
2020/12/31 09:52:24;;;;;;;17.75;11.38;;;9.80;55.10;;;;;;5047301;27;88134;-75
2020/12/31 09:54:50;;;;;;;16.67;11.57;;;9.80;55.40;;;;;;5025841;27;87077;-76
2020/12/31 09:57:16;;;;;;;15.70;11.73;;;9.90;55.30;;;;;;5024925;27;91027;-76
2020/12/31 09:59:42;;;;;;;17.85;11.80;;;9.90;55.10;;;;;;5010203;27;89377;-76
2020/12/31 10:02:08;;;;;;;16.13;11.73;;;10.00;54.90;;;;;;5028964;27;87667;-76
2020/12/31 10:04:34;;;;;;;14.35;10.50;;;10.00;54.80;;;;;;5029642;27;88278;-76
2020/12/31 10:07:00;;;;;;;13.23;9.48;;;10.10;53.80;;;;;;5023168;28;91784;-77
2020/12/31 10:09:26;;;;;;;14.73;10.57;;;10.10;53.20;;;;;;5008683;28;91227;-76
2020/12/31 10:11:55;;;;;;;12.48;9.77;;;10.10;53.20;;;;;;5007013;28;86828;-76
2020/12/31 10:14:21;;;;;;;14.98;10.60;;;10.20;53.60;;;;;;5006310;28;87972;-76
2020/12/31 10:16:49;;;;;;;15.30;10.73;;;10.20;53.00;;;;;;5042657;28;88541;-76
2020/12/31 10:19:15;;;;;;;29.10;16.33;;;10.30;53.10;;;;;;5023785;28;88944;-76
2020/12/31 10:21:44;;;;;;;42.13;17.35;;;10.30;52.30;;;;;;5008941;28;86962;-76
2020/12/31 10:24:10;;;;;;;20.08;11.77;;;10.30;51.60;;;;;;5043421;28;87018;-76
2020/12/31 10:26:36;;;;;;;28.52;13.13;;;10.20;51.80;;;;;;5045241;28;87768;-76
2020/12/31 10:29:02;;;;;;;29.58;12.13;;;10.30;51.60;;;;;;5026857;28;90216;-76
2020/12/31 10:31:28;;;;;;;18.92;10.63;;;10.30;51.00;;;;;;4999655;28;87052;-76
2020/12/31 10:33:54;;;;;;;20.42;11.63;;;10.20;51.90;;;;;;5042281;28;86637;-78
2020/12/31 10:36:20;;;;;;;26.90;12.88;;;10.20;52.30;;;;;;5038316;28;87267;-78
2020/12/31 10:38:46;;;;;;;15.40;9.52;;;10.20;52.10;;;;;;5005462;28;91507;-79
2020/12/31 10:41:13;;;;;;;14.98;9.82;;;10.20;52.20;;;;;;5004951;28;87891;-78
2020/12/31 10:43:39;;;;;;;16.30;9.85;;;10.20;52.20;;;;;;5005553;28;88183;-78
2020/12/31 10:46:05;;;;;;;13.13;9.52;;;10.20;52.40;;;;;;5020700;28;91287;-79
2020/12/31 10:48:31;;;;;;;13.52;9.45;;;10.20;51.30;;;;;;5004088;28;91416;-75
2020/12/31 10:50:59;;;;;;;10.65;8.48;;;10.10;51.50;;;;;;5021430;28;87490;-77
2020/12/31 10:53:26;;;;;;;13.30;9.43;;;9.90;52.10;;;;;;5021315;28;87564;-78
2020/12/31 10:55:52;;;;;;;13.80;9.15;;;9.90;52.20;;;;;;5005631;28;91454;-78
2020/12/31 10:58:18;;;;;;;11.60;8.57;;;9.90;52.20;;;;;;5021988;28;91124;-78
2020/12/31 11:00:43;;;;;;;21.27;14.10;;;9.80;51.70;;;;;;5022164;28;87049;-76
2020/12/31 11:03:09;;;;;;;27.30;16.25;;;9.80;52.30;;;;;;5019653;28;87133;-76
2020/12/31 11:05:35;;;;;;;15.63;10.48;;;9.80;51.90;;;;;;5019444;28;88384;-76
2020/12/31 11:08:01;;;;;;;13.20;9.52;;;9.80;51.90;;;;;;5019650;28;92257;-76
2020/12/31 11:10:26;;;;;;;25.38;15.32;;;9.80;51.90;;;;;;5020171;28;87006;-75
2020/12/31 11:12:52;;;;;;;14.63;10.23;;;9.70;52.40;;;;;;5003487;28;87475;-76
2020/12/31 11:15:18;;;;;;;14.18;9.27;;;9.70;52.10;;;;;;5019177;28;89522;-76
2020/12/31 11:17:44;;;;;;;11.43;7.88;;;9.70;52.30;;;;;;5020586;28;88074;-76
2020/12/31 11:20:09;;;;;;;13.63;9.00;;;9.60;52.40;;;;;;5003362;28;87091;-76
2020/12/31 11:22:35;;;;;;;15.85;10.30;;;9.60;52.30;;;;;;5021852;27;86296;-75
2020/12/31 11:25:01;;;;;;;11.98;8.32;;;9.40;52.60;;;;;;5023581;28;90105;-76
2020/12/31 11:27:27;;;;;;;10.20;8.50;;;9.40;52.90;;;;;;5023724;28;87970;-76
2020/12/31 11:29:53;;;;;;;14.73;10.23;;;9.30;52.40;;;;;;5006516;28;88176;-75
2020/12/31 11:32:18;;;;;;;15.93;9.27;;;9.30;52.40;;;;;;5022539;28;87161;-75
2020/12/31 11:34:45;;;;;;;24.23;14.73;;;9.20;52.40;;;;;;5021590;28;91301;-75
2020/12/31 11:37:11;;;;;;;17.70;11.07;;;9.10;52.10;;;;;;5040252;28;88133;-76
2020/12/31 11:39:37;;;;;;;15.43;9.48;;;9.00;52.60;;;;;;5006238;28;87136;-75
2020/12/31 11:42:03;;;;;;;18.20;11.60;;;9.00;53.30;;;;;;5022169;28;87085;-76
2020/12/31 11:44:29;;;;;;;16.15;10.50;;;9.00;52.70;;;;;;5013426;28;87742;-75
2020/12/31 11:46:58;;;;;;;13.88;9.80;;;9.00;52.70;;;;;;5026290;28;91164;-75
2020/12/31 11:49:25;;;;;;;14.17;8.43;;;9.00;52.90;;;;;;5025581;28;87413;-75
2020/12/31 11:51:58;;;;;;;11.90;7.95;;;8.90;52.70;;;;;;5010253;28;88383;-77
2020/12/31 11:54:25;;;;;;;10.13;7.23;;;8.90;53.00;;;;;;5026879;28;92837;-77
2020/12/31 11:56:51;;;;;;;10.07;6.90;;;8.80;52.80;;;;;;5045116;28;91246;-76
2020/12/31 11:59:17;;;;;;;17.70;8.23;;;8.70;52.90;;;;;;5011003;27;87108;-76
2020/12/31 12:01:50;;;;;;;11.83;8.10;;;8.60;53.50;;;;;;5041471;27;87087;-77
2020/12/31 12:04:17;;;;;;;19.80;13.27;;;8.60;53.60;;;;;;5017503;27;90279;-77
2020/12/31 12:06:54;;;;;;;20.58;13.48;;;8.60;55.00;;;;;;5022796;27;90361;-77
2020/12/31 12:09:23;;;;;;;17.20;11.90;;;8.60;55.40;;;;;;5019571;27;87173;-78
2020/12/31 12:11:49;;;;;;;19.60;11.07;;;8.50;54.40;;;;;;5019942;27;88100;-77
2020/12/31 12:14:16;;;;;;;17.50;11.60;;;8.40;55.10;;;;;;5018042;27;90826;-77
2020/12/31 12:16:42;;;;;;;23.93;15.97;;;8.30;54.90;;;;;;5032966;28;91233;-77
2020/12/31 12:19:10;;;;;;;24.73;15.97;;;8.20;56.90;;;;;;5032954;28;87940;-78
2020/12/31 12:21:37;;;;;;;25.80;15.83;;;8.10;57.70;;;;;;5010577;28;88175;-77
2020/12/31 12:24:04;;;;;;;25.00;15.47;;;8.10;58.10;;;;;;5016005;27;87065;-77
2020/12/31 12:26:38;;;;;;;24.43;14.77;;;8.00;58.30;;;;;;5015870;27;90387;-77
2020/12/31 12:29:09;;;;;;;26.77;16.27;;;7.80;58.20;;;;;;5019958;28;88464;-76
2020/12/31 12:31:37;;;;;;;26.80;14.90;;;7.60;59.10;;;;;;5023609;28;87074;-75
2020/12/31 12:34:06;;;;;;;27.90;17.43;;;7.60;59.40;;;;;;5007511;27;90260;-74
2020/12/31 12:36:33;;;;;;;34.93;20.17;;;7.50;59.70;;;;;;5023505;28;91722;-74
2020/12/31 12:38:59;;;;;;;30.57;20.07;;;7.50;62.30;;;;;;5007868;28;87081;-76
2020/12/31 12:41:25;;;;;;;31.80;19.67;;;7.40;63.20;;;;;;5023083;28;87033;-76
2020/12/31 12:43:51;;;;;;;33.00;19.70;;;7.40;63.20;;;;;;5028099;27;89323;-77